Terminal Aerodrome Forecast
Issued by NWS

Home | Current Version | Previous Version | Text Only | Print | Product List | Glossary On
Versions: 1 2 3 4 5 6 7 8 9 10 11 12 13 14 15 16 17 18
000
FTUS43 KGRB 241011 AAB
TAFMTW
TAF AMD
KMTW 241011Z 2410/2506 03007KT 5SM -SHRA BR OVC004
     FM241500 04012G16KT P6SM VCSH OVC012
     FM242300 04013KT P6SM BKN020=

USA.gov is the U.S. government's official web portal to all federal, state and local government web resources and services.